Merced, CA (95341)

12:10 AM PDT on August 24, 2016 (GMT -0700)
North Merced | | Change Station

Elev 174 ft 37.34 °N, 120.48 °W | Updated 2 seconds ago

Clear
Clear
71.1 °F
Feels Like 77 °F
N
0.0
Wind Variable Wind from NW
Gusts 0.0 mph

Today
High -- | Low -- °F
--% Chance of Precip.
Yesterday
High -- | Low -- °F
Precip. -- in
Pressure 30.00 in
Visibility 10.0 miles
Clouds Clear
Heat Index 77 °F
Dew Point 53 °F
Humidity 53%
Rainfall 0.00 in
Snow Depth Not available.
6:26 AM 7:41 PM
Waning Gibbous, 60% visible
METAR KMCE 240653Z AUTO 26004KT 10SM CLR 21/13 A3000 RMK AO2 SLP157 T02110128 TSNO
Pressure 30.00 in
Visibility 10.0 miles
Clouds Clear
Heat Index 77 °F
Dew Point 53 °F
Humidity 53%
Rainfall 0.00 in
Snow Depth Not available.
6:26 AM 7:41 PM
Waning Gibbous, 60% visible
METAR KMCE 240653Z AUTO 26004KT 10SM CLR 21/13 A3000 RMK AO2 SLP157 T02110128 TSNO

10-Day Weather Forecast

Almanac

Astronomy

Aug. 24, 2016 Rise Set
Actual Time
Civil Twilight
Nautical Twilight
Astronomical Twilight
Moon
Length of Visible Light
Length of Day
Tomorrow will be .
, % of the Moon is Illuminated

Today's Extremes

State Highs State Lows

Community

WunderPhotos

Upload Photos

1,934,555 photos uploaded!

WunderBlog® & News

Nearby

Air Quality

  Air Quality AQ Index Pollutant
Not available.

Snow Depth

Station Depth Elevation

Earthquake Activity

City Distance Mag. Time & Date
Minimum magnitude displayed is 2.5.

Coastal Water Temperatures

Place Temperature

Stations

Nearby Weather Stations

Station Location Temp. Windchill Dew Point Humidity Wind Precip. Elev Updated Type
                   

Watches & Warnings

There are currently no watches in effect.